sensor_id;sensor_type;location;lat;lon;timestamp;P1;durP1;ratioP1;P2;durP2;ratioP2
83550;SDS011;74617;47.082;15.524;2024-01-15T00:00:37;6.25;;;3.80;;
83550;SDS011;74617;47.082;15.524;2024-01-15T00:03:06;7.25;;;3.88;;
83550;SDS011;74617;47.082;15.524;2024-01-15T00:05:31;7.93;;;4.15;;
83550;SDS011;74617;47.082;15.524;2024-01-15T00:07:57;6.38;;;3.42;;
83550;SDS011;74617;47.082;15.524;2024-01-15T00:10:23;6.50;;;4.05;;
83550;SDS011;74617;47.082;15.524;2024-01-15T00:12:48;7.57;;;3.78;;
83550;SDS011;74617;47.082;15.524;2024-01-15T00:15:14;6.65;;;3.97;;
83550;SDS011;74617;47.082;15.524;2024-01-15T00:17:40;7.15;;;3.70;;
83550;SDS011;74617;47.082;15.524;2024-01-15T00:20:05;7.00;;;3.78;;
83550;SDS011;74617;47.082;15.524;2024-01-15T00:22:31;7.20;;;3.75;;
83550;SDS011;74617;47.082;15.524;2024-01-15T00:24:57;8.55;;;4.70;;
83550;SDS011;74617;47.082;15.524;2024-01-15T00:27:22;7.97;;;3.72;;
83550;SDS011;74617;47.082;15.524;2024-01-15T00:29:49;7.13;;;3.63;;
83550;SDS011;74617;47.082;15.524;2024-01-15T00:32:15;7.05;;;3.92;;
83550;SDS011;74617;47.082;15.524;2024-01-15T00:34:41;6.78;;;3.78;;
83550;SDS011;74617;47.082;15.524;2024-01-15T00:37:06;7.90;;;4.05;;
83550;SDS011;74617;47.082;15.524;2024-01-15T00:39:32;6.90;;;3.55;;
83550;SDS011;74617;47.082;15.524;2024-01-15T00:41:58;6.95;;;3.70;;
83550;SDS011;74617;47.082;15.524;2024-01-15T00:44:23;6.07;;;3.33;;
83550;SDS011;74617;47.082;15.524;2024-01-15T00:46:48;9.07;;;3.55;;
83550;SDS011;74617;47.082;15.524;2024-01-15T00:49:14;7.65;;;4.03;;
83550;SDS011;74617;47.082;15.524;2024-01-15T00:51:40;6.32;;;3.70;;
83550;SDS011;74617;47.082;15.524;2024-01-15T00:54:06;8.73;;;4.30;;
83550;SDS011;74617;47.082;15.524;2024-01-15T00:56:31;6.47;;;3.33;;
83550;SDS011;74617;47.082;15.524;2024-01-15T00:58:57;7.15;;;4.25;;
83550;SDS011;74617;47.082;15.524;2024-01-15T01:01:22;6.20;;;3.35;;
83550;SDS011;74617;47.082;15.524;2024-01-15T01:03:48;8.10;;;4.15;;
83550;SDS011;74617;47.082;15.524;2024-01-15T01:06:13;7.07;;;3.47;;
83550;SDS011;74617;47.082;15.524;2024-01-15T01:08:38;8.68;;;3.75;;
83550;SDS011;74617;47.082;15.524;2024-01-15T01:11:04;8.48;;;3.60;;
83550;SDS011;74617;47.082;15.524;2024-01-15T01:13:31;6.63;;;3.65;;
83550;SDS011;74617;47.082;15.524;2024-01-15T01:15:56;6.35;;;3.88;;
83550;SDS011;74617;47.082;15.524;2024-01-15T01:18:22;6.80;;;3.72;;
83550;SDS011;74617;47.082;15.524;2024-01-15T01:20:47;8.35;;;3.97;;
83550;SDS011;74617;47.082;15.524;2024-01-15T01:23:12;7.05;;;3.75;;
83550;SDS011;74617;47.082;15.524;2024-01-15T01:25:38;6.95;;;4.05;;
83550;SDS011;74617;47.082;15.524;2024-01-15T01:28:03;8.98;;;3.97;;
83550;SDS011;74617;47.082;15.524;2024-01-15T01:30:29;5.47;;;3.40;;
83550;SDS011;74617;47.082;15.524;2024-01-15T01:32:54;7.72;;;3.38;;
83550;SDS011;74617;47.082;15.524;2024-01-15T01:35:19;6.57;;;3.65;;
83550;SDS011;74617;47.082;15.524;2024-01-15T01:37:45;5.70;;;3.63;;
83550;SDS011;74617;47.082;15.524;2024-01-15T01:40:10;7.72;;;3.53;;
83550;SDS011;74617;47.082;15.524;2024-01-15T01:42:36;5.50;;;3.33;;
83550;SDS011;74617;47.082;15.524;2024-01-15T01:45:01;7.10;;;3.88;;
83550;SDS011;74617;47.082;15.524;2024-01-15T01:47:27;7.70;;;4.22;;
83550;SDS011;74617;47.082;15.524;2024-01-15T01:49:52;6.18;;;3.60;;
83550;SDS011;74617;47.082;15.524;2024-01-15T01:52:19;5.40;;;3.30;;
83550;SDS011;74617;47.082;15.524;2024-01-15T01:54:44;6.53;;;3.67;;
83550;SDS011;74617;47.082;15.524;2024-01-15T01:57:09;5.88;;;3.45;;
83550;SDS011;74617;47.082;15.524;2024-01-15T01:59:37;7.70;;;4.47;;
83550;SDS011;74617;47.082;15.524;2024-01-15T02:02:03;7.97;;;3.78;;
83550;SDS011;74617;47.082;15.524;2024-01-15T02:04:30;6.25;;;3.40;;
83550;SDS011;74617;47.082;15.524;2024-01-15T02:06:57;7.15;;;3.78;;
83550;SDS011;74617;47.082;15.524;2024-01-15T02:09:23;7.20;;;3.83;;
83550;SDS011;74617;47.082;15.524;2024-01-15T02:11:49;5.93;;;3.90;;
83550;SDS011;74617;47.082;15.524;2024-01-15T02:14:14;6.68;;;3.30;;
83550;SDS011;74617;47.082;15.524;2024-01-15T02:16:40;6.13;;;3.25;;
83550;SDS011;74617;47.082;15.524;2024-01-15T02:19:06;9.07;;;3.88;;
83550;SDS011;74617;47.082;15.524;2024-01-15T02:21:31;5.78;;;3.47;;
83550;SDS011;74617;47.082;15.524;2024-01-15T02:23:57;5.90;;;3.58;;
83550;SDS011;74617;47.082;15.524;2024-01-15T02:26:23;12.10;;;3.80;;
83550;SDS011;74617;47.082;15.524;2024-01-15T02:28:49;6.13;;;4.10;;
83550;SDS011;74617;47.082;15.524;2024-01-15T02:31:16;10.52;;;3.70;;
83550;SDS011;74617;47.082;15.524;2024-01-15T02:33:42;9.00;;;3.78;;
83550;SDS011;74617;47.082;15.524;2024-01-15T02:36:07;7.65;;;3.88;;
83550;SDS011;74617;47.082;15.524;2024-01-15T02:38:33;7.07;;;3.40;;
83550;SDS011;74617;47.082;15.524;2024-01-15T02:40:58;6.20;;;3.58;;
83550;SDS011;74617;47.082;15.524;2024-01-15T02:43:24;8.68;;;3.58;;
83550;SDS011;74617;47.082;15.524;2024-01-15T02:45:49;8.10;;;4.03;;
83550;SDS011;74617;47.082;15.524;2024-01-15T02:48:15;5.72;;;3.70;;
83550;SDS011;74617;47.082;15.524;2024-01-15T02:50:40;5.47;;;3.75;;
83550;SDS011;74617;47.082;15.524;2024-01-15T02:53:05;6.40;;;3.70;;
83550;SDS011;74617;47.082;15.524;2024-01-15T02:55:31;6.78;;;4.10;;
83550;SDS011;74617;47.082;15.524;2024-01-15T02:57:56;6.72;;;3.67;;
83550;SDS011;74617;47.082;15.524;2024-01-15T03:00:22;7.22;;;3.65;;
83550;SDS011;74617;47.082;15.524;2024-01-15T03:02:48;6.68;;;3.67;;
83550;SDS011;74617;47.082;15.524;2024-01-15T03:05:15;7.93;;;4.10;;
83550;SDS011;74617;47.082;15.524;2024-01-15T03:07:41;6.75;;;3.63;;
83550;SDS011;74617;47.082;15.524;2024-01-15T03:10:07;6.03;;;3.20;;
83550;SDS011;74617;47.082;15.524;2024-01-15T03:12:33;8.35;;;4.80;;
83550;SDS011;74617;47.082;15.524;2024-01-15T03:14:58;6.65;;;3.00;;
83550;SDS011;74617;47.082;15.524;2024-01-15T03:17:24;7.68;;;3.88;;
83550;SDS011;74617;47.082;15.524;2024-01-15T03:19:49;6.88;;;3.85;;
83550;SDS011;74617;47.082;15.524;2024-01-15T03:22:15;6.53;;;2.83;;
83550;SDS011;74617;47.082;15.524;2024-01-15T03:24:41;8.45;;;3.55;;
83550;SDS011;74617;47.082;15.524;2024-01-15T03:27:07;7.68;;;3.05;;
83550;SDS011;74617;47.082;15.524;2024-01-15T03:29:32;8.85;;;3.67;;
83550;SDS011;74617;47.082;15.524;2024-01-15T03:31:58;5.28;;;3.17;;
83550;SDS011;74617;47.082;15.524;2024-01-15T03:34:23;5.45;;;3.13;;
83550;SDS011;74617;47.082;15.524;2024-01-15T03:36:49;8.43;;;3.78;;
83550;SDS011;74617;47.082;15.524;2024-01-15T03:39:14;6.45;;;3.55;;
83550;SDS011;74617;47.082;15.524;2024-01-15T03:41:39;6.50;;;3.70;;
83550;SDS011;74617;47.082;15.524;2024-01-15T03:44:05;5.57;;;3.10;;
83550;SDS011;74617;47.082;15.524;2024-01-15T03:46:30;5.95;;;3.47;;
83550;SDS011;74617;47.082;15.524;2024-01-15T03:48:56;6.97;;;3.05;;
83550;SDS011;74617;47.082;15.524;2024-01-15T03:51:21;7.13;;;3.20;;
83550;SDS011;74617;47.082;15.524;2024-01-15T03:53:48;6.50;;;3.90;;
83550;SDS011;74617;47.082;15.524;2024-01-15T03:56:13;5.50;;;3.42;;
83550;SDS011;74617;47.082;15.524;2024-01-15T03:58:38;6.43;;;3.22;;
83550;SDS011;74617;47.082;15.524;2024-01-15T04:01:06;5.28;;;3.30;;
83550;SDS011;74617;47.082;15.524;2024-01-15T04:05:59;6.33;;;2.90;;
83550;SDS011;74617;47.082;15.524;2024-01-15T04:08:24;5.53;;;3.08;;
83550;SDS011;74617;47.082;15.524;2024-01-15T04:10:49;8.77;;;4.03;;
83550;SDS011;74617;47.082;15.524;2024-01-15T04:13:15;5.93;;;3.20;;
83550;SDS011;74617;47.082;15.524;2024-01-15T04:15:40;8.00;;;4.07;;
83550;SDS011;74617;47.082;15.524;2024-01-15T04:18:05;5.47;;;3.38;;
83550;SDS011;74617;47.082;15.524;2024-01-15T04:20:31;7.90;;;3.60;;
83550;SDS011;74617;47.082;15.524;2024-01-15T04:22:56;7.68;;;3.65;;
83550;SDS011;74617;47.082;15.524;2024-01-15T04:25:22;6.40;;;3.22;;
83550;SDS011;74617;47.082;15.524;2024-01-15T04:27:47;4.93;;;2.97;;
83550;SDS011;74617;47.082;15.524;2024-01-15T04:30:13;5.60;;;3.13;;
83550;SDS011;74617;47.082;15.524;2024-01-15T04:32:38;6.32;;;3.55;;
83550;SDS011;74617;47.082;15.524;2024-01-15T04:35:03;5.72;;;2.67;;
83550;SDS011;74617;47.082;15.524;2024-01-15T04:37:29;7.15;;;3.90;;
83550;SDS011;74617;47.082;15.524;2024-01-15T04:39:54;6.30;;;3.22;;
83550;SDS011;74617;47.082;15.524;2024-01-15T04:42:20;5.97;;;3.28;;
83550;SDS011;74617;47.082;15.524;2024-01-15T04:44:46;7.05;;;3.90;;
83550;SDS011;74617;47.082;15.524;2024-01-15T04:47:12;6.30;;;3.30;;
83550;SDS011;74617;47.082;15.524;2024-01-15T04:49:37;6.95;;;3.60;;
83550;SDS011;74617;47.082;15.524;2024-01-15T04:52:03;7.50;;;3.67;;
83550;SDS011;74617;47.082;15.524;2024-01-15T04:54:28;6.60;;;3.65;;
83550;SDS011;74617;47.082;15.524;2024-01-15T04:56:53;8.70;;;2.97;;
83550;SDS011;74617;47.082;15.524;2024-01-15T04:59:19;8.18;;;3.33;;
83550;SDS011;74617;47.082;15.524;2024-01-15T05:01:44;5.50;;;3.78;;
83550;SDS011;74617;47.082;15.524;2024-01-15T05:04:10;6.25;;;3.30;;
83550;SDS011;74617;47.082;15.524;2024-01-15T05:06:35;7.18;;;3.72;;
83550;SDS011;74617;47.082;15.524;2024-01-15T05:09:00;5.38;;;3.30;;
83550;SDS011;74617;47.082;15.524;2024-01-15T05:11:26;6.55;;;3.42;;
83550;SDS011;74617;47.082;15.524;2024-01-15T05:13:51;6.20;;;3.33;;
83550;SDS011;74617;47.082;15.524;2024-01-15T05:16:17;6.32;;;3.05;;
83550;SDS011;74617;47.082;15.524;2024-01-15T05:18:42;4.78;;;2.58;;
83550;SDS011;74617;47.082;15.524;2024-01-15T05:21:08;5.32;;;3.13;;
83550;SDS011;74617;47.082;15.524;2024-01-15T05:23:34;6.78;;;3.25;;
83550;SDS011;74617;47.082;15.524;2024-01-15T05:25:59;5.35;;;2.80;;
83550;SDS011;74617;47.082;15.524;2024-01-15T05:28:25;5.18;;;3.15;;
83550;SDS011;74617;47.082;15.524;2024-01-15T05:30:50;6.10;;;3.03;;
83550;SDS011;74617;47.082;15.524;2024-01-15T05:33:16;7.40;;;3.20;;
83550;SDS011;74617;47.082;15.524;2024-01-15T05:35:42;4.22;;;2.60;;
83550;SDS011;74617;47.082;15.524;2024-01-15T05:38:08;10.82;;;3.13;;
83550;SDS011;74617;47.082;15.524;2024-01-15T05:40:33;5.68;;;3.38;;
83550;SDS011;74617;47.082;15.524;2024-01-15T05:42:59;7.25;;;3.78;;
83550;SDS011;74617;47.082;15.524;2024-01-15T05:45:26;7.55;;;3.20;;
83550;SDS011;74617;47.082;15.524;2024-01-15T05:47:52;6.95;;;4.15;;
83550;SDS011;74617;47.082;15.524;2024-01-15T05:50:17;7.45;;;3.95;;
83550;SDS011;74617;47.082;15.524;2024-01-15T05:52:43;7.32;;;3.47;;
83550;SDS011;74617;47.082;15.524;2024-01-15T05:55:08;5.95;;;3.65;;
83550;SDS011;74617;47.082;15.524;2024-01-15T05:57:34;6.85;;;3.47;;
83550;SDS011;74617;47.082;15.524;2024-01-15T06:00:00;7.97;;;4.60;;
83550;SDS011;74617;47.082;15.524;2024-01-15T06:02:25;8.40;;;4.53;;
83550;SDS011;74617;47.082;15.524;2024-01-15T06:04:51;8.32;;;4.43;;
83550;SDS011;74617;47.082;15.524;2024-01-15T06:07:16;10.93;;;4.95;;
83550;SDS011;74617;47.082;15.524;2024-01-15T06:09:41;8.25;;;4.80;;
83550;SDS011;74617;47.082;15.524;2024-01-15T06:12:07;6.80;;;3.88;;
83550;SDS011;74617;47.082;15.524;2024-01-15T06:14:32;8.32;;;4.78;;
83550;SDS011;74617;47.082;15.524;2024-01-15T06:16:58;8.48;;;4.68;;
83550;SDS011;74617;47.082;15.524;2024-01-15T06:19:23;9.10;;;4.63;;
83550;SDS011;74617;47.082;15.524;2024-01-15T06:21:48;8.68;;;4.10;;
83550;SDS011;74617;47.082;15.524;2024-01-15T06:24:14;7.72;;;4.22;;
83550;SDS011;74617;47.082;15.524;2024-01-15T06:26:40;9.07;;;4.90;;
83550;SDS011;74617;47.082;15.524;2024-01-15T06:29:05;7.95;;;4.20;;
83550;SDS011;74617;47.082;15.524;2024-01-15T06:31:31;8.88;;;3.90;;
83550;SDS011;74617;47.082;15.524;2024-01-15T06:33:56;8.43;;;4.47;;
83550;SDS011;74617;47.082;15.524;2024-01-15T06:36:21;7.97;;;3.55;;
83550;SDS011;74617;47.082;15.524;2024-01-15T06:38:47;9.05;;;4.38;;
83550;SDS011;74617;47.082;15.524;2024-01-15T06:41:12;7.65;;;3.78;;
83550;SDS011;74617;47.082;15.524;2024-01-15T06:43:38;5.90;;;3.53;;
83550;SDS011;74617;47.082;15.524;2024-01-15T06:46:03;8.30;;;3.63;;
83550;SDS011;74617;47.082;15.524;2024-01-15T06:48:29;7.03;;;3.78;;
83550;SDS011;74617;47.082;15.524;2024-01-15T06:50:54;9.38;;;3.97;;
83550;SDS011;74617;47.082;15.524;2024-01-15T06:53:19;6.82;;;3.75;;
83550;SDS011;74617;47.082;15.524;2024-01-15T06:55:45;6.40;;;3.35;;
83550;SDS011;74617;47.082;15.524;2024-01-15T06:58:11;7.90;;;3.85;;
83550;SDS011;74617;47.082;15.524;2024-01-15T07:00:36;7.88;;;3.15;;
83550;SDS011;74617;47.082;15.524;2024-01-15T07:03:02;7.15;;;4.05;;
83550;SDS011;74617;47.082;15.524;2024-01-15T07:05:28;5.97;;;3.50;;
83550;SDS011;74617;47.082;15.524;2024-01-15T07:07:55;7.20;;;3.95;;
83550;SDS011;74617;47.082;15.524;2024-01-15T07:10:20;6.22;;;2.92;;
83550;SDS011;74617;47.082;15.524;2024-01-15T07:12:46;7.15;;;3.85;;
83550;SDS011;74617;47.082;15.524;2024-01-15T07:15:11;8.05;;;4.05;;
83550;SDS011;74617;47.082;15.524;2024-01-15T07:17:36;5.38;;;3.20;;
83550;SDS011;74617;47.082;15.524;2024-01-15T07:20:06;6.50;;;3.08;;
83550;SDS011;74617;47.082;15.524;2024-01-15T07:22:35;5.45;;;3.10;;
83550;SDS011;74617;47.082;15.524;2024-01-15T07:25:01;7.03;;;3.40;;
83550;SDS011;74617;47.082;15.524;2024-01-15T07:27:27;7.90;;;3.58;;
83550;SDS011;74617;47.082;15.524;2024-01-15T07:29:52;5.30;;;3.20;;
83550;SDS011;74617;47.082;15.524;2024-01-15T07:32:18;7.18;;;3.20;;
83550;SDS011;74617;47.082;15.524;2024-01-15T07:34:43;6.55;;;3.03;;
83550;SDS011;74617;47.082;15.524;2024-01-15T07:37:09;5.25;;;2.83;;
83550;SDS011;74617;47.082;15.524;2024-01-15T07:39:34;5.80;;;3.08;;
83550;SDS011;74617;47.082;15.524;2024-01-15T07:42:00;6.32;;;3.30;;
83550;SDS011;74617;47.082;15.524;2024-01-15T07:44:26;5.15;;;2.70;;
83550;SDS011;74617;47.082;15.524;2024-01-15T07:46:51;5.50;;;2.83;;
83550;SDS011;74617;47.082;15.524;2024-01-15T07:49:16;4.72;;;3.13;;
83550;SDS011;74617;47.082;15.524;2024-01-15T07:51:42;6.53;;;3.15;;
83550;SDS011;74617;47.082;15.524;2024-01-15T07:54:10;5.40;;;2.58;;
83550;SDS011;74617;47.082;15.524;2024-01-15T07:59:22;6.97;;;3.22;;
83550;SDS011;74617;47.082;15.524;2024-01-15T08:01:48;7.68;;;3.22;;
83550;SDS011;74617;47.082;15.524;2024-01-15T08:04:13;5.22;;;2.72;;
83550;SDS011;74617;47.082;15.524;2024-01-15T08:06:39;5.50;;;3.05;;
83550;SDS011;74617;47.082;15.524;2024-01-15T08:09:04;4.28;;;2.95;;
83550;SDS011;74617;47.082;15.524;2024-01-15T08:11:30;5.53;;;3.00;;
83550;SDS011;74617;47.082;15.524;2024-01-15T08:13:55;5.35;;;2.83;;
83550;SDS011;74617;47.082;15.524;2024-01-15T08:16:21;4.97;;;2.90;;
83550;SDS011;74617;47.082;15.524;2024-01-15T08:18:47;6.97;;;3.35;;
83550;SDS011;74617;47.082;15.524;2024-01-15T08:21:12;4.63;;;2.47;;
83550;SDS011;74617;47.082;15.524;2024-01-15T08:23:38;5.93;;;2.80;;
83550;SDS011;74617;47.082;15.524;2024-01-15T08:26:04;4.63;;;2.80;;
83550;SDS011;74617;47.082;15.524;2024-01-15T08:28:29;6.20;;;3.47;;
83550;SDS011;74617;47.082;15.524;2024-01-15T08:30:55;4.53;;;2.45;;
83550;SDS011;74617;47.082;15.524;2024-01-15T08:33:21;4.93;;;2.50;;
83550;SDS011;74617;47.082;15.524;2024-01-15T08:35:46;4.80;;;2.47;;
83550;SDS011;74617;47.082;15.524;2024-01-15T08:38:12;4.80;;;2.50;;
83550;SDS011;74617;47.082;15.524;2024-01-15T08:40:37;5.05;;;2.53;;
83550;SDS011;74617;47.082;15.524;2024-01-15T08:43:03;5.53;;;2.80;;
83550;SDS011;74617;47.082;15.524;2024-01-15T08:45:28;6.90;;;2.42;;
83550;SDS011;74617;47.082;15.524;2024-01-15T08:47:53;4.93;;;2.50;;
83550;SDS011;74617;47.082;15.524;2024-01-15T08:50:19;4.43;;;2.25;;
83550;SDS011;74617;47.082;15.524;2024-01-15T08:52:44;5.45;;;2.92;;
83550;SDS011;74617;47.082;15.524;2024-01-15T08:55:11;4.30;;;2.17;;
83550;SDS011;74617;47.082;15.524;2024-01-15T08:57:38;4.72;;;2.63;;
83550;SDS011;74617;47.082;15.524;2024-01-15T09:00:03;4.75;;;2.83;;
83550;SDS011;74617;47.082;15.524;2024-01-15T09:04:58;6.20;;;2.30;;
83550;SDS011;74617;47.082;15.524;2024-01-15T09:07:24;6.03;;;2.55;;
83550;SDS011;74617;47.082;15.524;2024-01-15T09:09:51;6.65;;;2.15;;
83550;SDS011;74617;47.082;15.524;2024-01-15T09:12:16;3.80;;;1.95;;
83550;SDS011;74617;47.082;15.524;2024-01-15T09:14:43;4.40;;;1.88;;
83550;SDS011;74617;47.082;15.524;2024-01-15T09:17:09;3.95;;;2.00;;
83550;SDS011;74617;47.082;15.524;2024-01-15T09:19:34;4.13;;;2.03;;
83550;SDS011;74617;47.082;15.524;2024-01-15T09:22:00;4.85;;;2.00;;
83550;SDS011;74617;47.082;15.524;2024-01-15T09:24:25;3.22;;;1.60;;
83550;SDS011;74617;47.082;15.524;2024-01-15T09:26:50;4.55;;;1.92;;
83550;SDS011;74617;47.082;15.524;2024-01-15T09:29:16;4.93;;;2.28;;
83550;SDS011;74617;47.082;15.524;2024-01-15T09:31:43;5.15;;;1.90;;
83550;SDS011;74617;47.082;15.524;2024-01-15T09:34:08;4.07;;;2.03;;
83550;SDS011;74617;47.082;15.524;2024-01-15T09:36:38;3.70;;;1.63;;
83550;SDS011;74617;47.082;15.524;2024-01-15T09:39:05;3.47;;;2.00;;
83550;SDS011;74617;47.082;15.524;2024-01-15T09:41:33;4.40;;;1.85;;
83550;SDS011;74617;47.082;15.524;2024-01-15T09:44:02;4.72;;;1.85;;
83550;SDS011;74617;47.082;15.524;2024-01-15T09:46:28;7.82;;;2.50;;
83550;SDS011;74617;47.082;15.524;2024-01-15T09:48:53;5.85;;;2.10;;
83550;SDS011;74617;47.082;15.524;2024-01-15T09:51:19;4.68;;;1.70;;
83550;SDS011;74617;47.082;15.524;2024-01-15T09:53:45;5.90;;;1.95;;
83550;SDS011;74617;47.082;15.524;2024-01-15T09:56:12;9.15;;;2.13;;
83550;SDS011;74617;47.082;15.524;2024-01-15T09:58:39;4.07;;;1.83;;
83550;SDS011;74617;47.082;15.524;2024-01-15T10:01:06;7.50;;;2.03;;
83550;SDS011;74617;47.082;15.524;2024-01-15T10:03:33;6.90;;;1.75;;
83550;SDS011;74617;47.082;15.524;2024-01-15T10:05:59;5.22;;;2.08;;
83550;SDS011;74617;47.082;15.524;2024-01-15T10:08:24;3.03;;;1.33;;
83550;SDS011;74617;47.082;15.524;2024-01-15T10:10:50;3.25;;;1.63;;
83550;SDS011;74617;47.082;15.524;2024-01-15T10:13:15;3.83;;;1.83;;
83550;SDS011;74617;47.082;15.524;2024-01-15T10:15:41;6.47;;;1.98;;
83550;SDS011;74617;47.082;15.524;2024-01-15T10:18:10;5.20;;;1.70;;
83550;SDS011;74617;47.082;15.524;2024-01-15T10:20:35;4.00;;;1.67;;
83550;SDS011;74617;47.082;15.524;2024-01-15T10:23:01;3.75;;;1.88;;
83550;SDS011;74617;47.082;15.524;2024-01-15T10:25:27;3.92;;;1.77;;
83550;SDS011;74617;47.082;15.524;2024-01-15T10:28:02;4.05;;;1.42;;
83550;SDS011;74617;47.082;15.524;2024-01-15T10:30:29;5.03;;;1.55;;
83550;SDS011;74617;47.082;15.524;2024-01-15T10:33:01;3.33;;;1.60;;
83550;SDS011;74617;47.082;15.524;2024-01-15T10:35:31;5.97;;;2.45;;
83550;SDS011;74617;47.082;15.524;2024-01-15T10:38:01;5.47;;;1.95;;
83550;SDS011;74617;47.082;15.524;2024-01-15T10:40:28;4.63;;;1.65;;
83550;SDS011;74617;47.082;15.524;2024-01-15T10:42:54;4.55;;;1.52;;
83550;SDS011;74617;47.082;15.524;2024-01-15T10:45:20;4.15;;;1.83;;
83550;SDS011;74617;47.082;15.524;2024-01-15T10:47:45;5.78;;;1.77;;
83550;SDS011;74617;47.082;15.524;2024-01-15T10:50:11;4.63;;;1.88;;
83550;SDS011;74617;47.082;15.524;2024-01-15T10:52:38;3.20;;;1.73;;
83550;SDS011;74617;47.082;15.524;2024-01-15T10:55:08;4.15;;;2.15;;
83550;SDS011;74617;47.082;15.524;2024-01-15T10:57:34;4.97;;;2.38;;
83550;SDS011;74617;47.082;15.524;2024-01-15T11:00:06;6.75;;;2.78;;
83550;SDS011;74617;47.082;15.524;2024-01-15T11:02:34;4.93;;;2.05;;
83550;SDS011;74617;47.082;15.524;2024-01-15T11:05:01;4.82;;;2.75;;
83550;SDS011;74617;47.082;15.524;2024-01-15T11:07:26;6.15;;;4.25;;
83550;SDS011;74617;47.082;15.524;2024-01-15T11:09:52;6.68;;;4.22;;
83550;SDS011;74617;47.082;15.524;2024-01-15T11:12:17;6.68;;;3.80;;
83550;SDS011;74617;47.082;15.524;2024-01-15T11:14:47;5.32;;;3.35;;
83550;SDS011;74617;47.082;15.524;2024-01-15T11:22:09;18.52;;;8.75;;
83550;SDS011;74617;47.082;15.524;2024-01-15T11:24:40;20.30;;;7.72;;
83550;SDS011;74617;47.082;15.524;2024-01-15T11:27:06;14.38;;;7.35;;
83550;SDS011;74617;47.082;15.524;2024-01-15T11:29:36;14.82;;;7.43;;
83550;SDS011;74617;47.082;15.524;2024-01-15T11:32:08;12.30;;;5.97;;
83550;SDS011;74617;47.082;15.524;2024-01-15T11:37:19;13.23;;;6.45;;
83550;SDS011;74617;47.082;15.524;2024-01-15T11:39:45;13.38;;;5.63;;
83550;SDS011;74617;47.082;15.524;2024-01-15T11:42:12;8.13;;;5.35;;
83550;SDS011;74617;47.082;15.524;2024-01-15T11:44:39;7.43;;;4.47;;
83550;SDS011;74617;47.082;15.524;2024-01-15T11:47:05;9.20;;;4.60;;
83550;SDS011;74617;47.082;15.524;2024-01-15T11:52:36;7.00;;;3.47;;
83550;SDS011;74617;47.082;15.524;2024-01-15T11:55:14;6.18;;;2.88;;
83550;SDS011;74617;47.082;15.524;2024-01-15T11:57:45;6.75;;;3.08;;
83550;SDS011;74617;47.082;15.524;2024-01-15T12:00:12;8.88;;;3.00;;
83550;SDS011;74617;47.082;15.524;2024-01-15T12:02:42;5.43;;;2.95;;
83550;SDS011;74617;47.082;15.524;2024-01-15T12:05:12;5.15;;;2.72;;
83550;SDS011;74617;47.082;15.524;2024-01-15T12:07:42;4.60;;;2.47;;
83550;SDS011;74617;47.082;15.524;2024-01-15T12:15:19;6.28;;;2.10;;
83550;SDS011;74617;47.082;15.524;2024-01-15T12:17:45;3.58;;;2.05;;
83550;SDS011;74617;47.082;15.524;2024-01-15T12:20:10;4.10;;;1.85;;
83550;SDS011;74617;47.082;15.524;2024-01-15T12:22:37;4.70;;;2.50;;
83550;SDS011;74617;47.082;15.524;2024-01-15T12:25:03;5.60;;;2.50;;
83550;SDS011;74617;47.082;15.524;2024-01-15T12:27:28;3.88;;;2.00;;
83550;SDS011;74617;47.082;15.524;2024-01-15T12:29:54;3.70;;;2.00;;
83550;SDS011;74617;47.082;15.524;2024-01-15T12:32:19;4.32;;;1.95;;
83550;SDS011;74617;47.082;15.524;2024-01-15T12:34:46;4.40;;;2.45;;
83550;SDS011;74617;47.082;15.524;2024-01-15T12:37:14;3.28;;;1.67;;
83550;SDS011;74617;47.082;15.524;2024-01-15T12:39:42;3.33;;;1.83;;
83550;SDS011;74617;47.082;15.524;2024-01-15T12:42:09;3.55;;;1.85;;
83550;SDS011;74617;47.082;15.524;2024-01-15T12:44:35;2.88;;;1.63;;
83550;SDS011;74617;47.082;15.524;2024-01-15T12:47:01;3.58;;;1.90;;
83550;SDS011;74617;47.082;15.524;2024-01-15T12:49:26;4.78;;;2.10;;
83550;SDS011;74617;47.082;15.524;2024-01-15T12:51:56;3.38;;;1.95;;
83550;SDS011;74617;47.082;15.524;2024-01-15T12:54:22;3.45;;;2.00;;
83550;SDS011;74617;47.082;15.524;2024-01-15T12:56:48;4.28;;;2.10;;
83550;SDS011;74617;47.082;15.524;2024-01-15T12:59:14;4.32;;;1.55;;
83550;SDS011;74617;47.082;15.524;2024-01-15T13:01:39;3.40;;;1.92;;
83550;SDS011;74617;47.082;15.524;2024-01-15T13:04:05;4.68;;;1.88;;
83550;SDS011;74617;47.082;15.524;2024-01-15T13:06:33;3.00;;;1.55;;
83550;SDS011;74617;47.082;15.524;2024-01-15T13:08:59;3.45;;;1.55;;
83550;SDS011;74617;47.082;15.524;2024-01-15T13:11:25;4.65;;;1.83;;
83550;SDS011;74617;47.082;15.524;2024-01-15T13:13:50;2.90;;;1.60;;
83550;SDS011;74617;47.082;15.524;2024-01-15T13:16:16;4.45;;;1.77;;
83550;SDS011;74617;47.082;15.524;2024-01-15T13:18:41;2.95;;;1.58;;
83550;SDS011;74617;47.082;15.524;2024-01-15T13:21:06;4.75;;;1.75;;
83550;SDS011;74617;47.082;15.524;2024-01-15T13:23:32;3.17;;;1.63;;
83550;SDS011;74617;47.082;15.524;2024-01-15T13:25:57;4.30;;;1.50;;
83550;SDS011;74617;47.082;15.524;2024-01-15T13:28:23;3.80;;;1.52;;
83550;SDS011;74617;47.082;15.524;2024-01-15T13:30:49;3.70;;;1.65;;
83550;SDS011;74617;47.082;15.524;2024-01-15T13:33:14;2.67;;;1.20;;
83550;SDS011;74617;47.082;15.524;2024-01-15T13:35:39;3.10;;;2.03;;
83550;SDS011;74617;47.082;15.524;2024-01-15T13:38:05;4.50;;;1.73;;
83550;SDS011;74617;47.082;15.524;2024-01-15T13:40:30;5.78;;;2.25;;
83550;SDS011;74617;47.082;15.524;2024-01-15T13:42:56;4.35;;;1.65;;
83550;SDS011;74617;47.082;15.524;2024-01-15T13:45:21;4.35;;;1.95;;
83550;SDS011;74617;47.082;15.524;2024-01-15T13:47:49;5.05;;;1.88;;
83550;SDS011;74617;47.082;15.524;2024-01-15T13:50:14;4.40;;;1.95;;
83550;SDS011;74617;47.082;15.524;2024-01-15T13:52:40;4.05;;;1.90;;
83550;SDS011;74617;47.082;15.524;2024-01-15T13:55:05;4.95;;;2.05;;
83550;SDS011;74617;47.082;15.524;2024-01-15T13:57:33;7.60;;;2.83;;
83550;SDS011;74617;47.082;15.524;2024-01-15T13:59:59;5.53;;;2.28;;
83550;SDS011;74617;47.082;15.524;2024-01-15T14:02:25;5.25;;;2.50;;
83550;SDS011;74617;47.082;15.524;2024-01-15T14:04:50;6.47;;;2.67;;
83550;SDS011;74617;47.082;15.524;2024-01-15T14:07:16;6.28;;;2.35;;
83550;SDS011;74617;47.082;15.524;2024-01-15T14:09:41;5.78;;;2.25;;
83550;SDS011;74617;47.082;15.524;2024-01-15T14:12:07;4.63;;;1.80;;
83550;SDS011;74617;47.082;15.524;2024-01-15T14:14:32;4.75;;;2.33;;
83550;SDS011;74617;47.082;15.524;2024-01-15T14:16:58;5.20;;;2.30;;
83550;SDS011;74617;47.082;15.524;2024-01-15T14:19:23;5.75;;;2.67;;
83550;SDS011;74617;47.082;15.524;2024-01-15T14:21:49;5.45;;;2.78;;
83550;SDS011;74617;47.082;15.524;2024-01-15T14:24:14;7.45;;;3.35;;
83550;SDS011;74617;47.082;15.524;2024-01-15T14:26:41;7.03;;;3.60;;
83550;SDS011;74617;47.082;15.524;2024-01-15T14:29:06;6.85;;;3.15;;
83550;SDS011;74617;47.082;15.524;2024-01-15T14:31:32;7.75;;;4.03;;
83550;SDS011;74617;47.082;15.524;2024-01-15T14:33:58;6.38;;;2.75;;
83550;SDS011;74617;47.082;15.524;2024-01-15T14:36:24;5.88;;;2.75;;
83550;SDS011;74617;47.082;15.524;2024-01-15T14:38:49;6.68;;;2.65;;
83550;SDS011;74617;47.082;15.524;2024-01-15T14:41:15;6.00;;;2.75;;
83550;SDS011;74617;47.082;15.524;2024-01-15T14:43:41;4.25;;;2.20;;
83550;SDS011;74617;47.082;15.524;2024-01-15T14:46:07;5.57;;;2.63;;
83550;SDS011;74617;47.082;15.524;2024-01-15T14:48:32;4.75;;;2.17;;